Bookmark and Share
Track history (hours):
 

Magnate

Last reported at 2014-Apr-18 02:03 UTC. Time now 2014-Apr-18 10:44 UTC.
Position N 58°10' E 010°41'.

Length 140 m; draft 7.3 m.

Type: Cargo ship. MMSI: 357055000.

NotesDate/timePositionNaut miles runAvg speedWind from/ knotsBaromVisibWave heightAir tempDewpointWater temp
2014-Apr-18 02:03N 58°10' E 010°41'612.1
2014-Apr-18 01:33N 58°05' E 010°46'1212.0
2014-Apr-18 00:33N 57°54' E 010°58'1212.2
2014-Apr-17 23:33N 57°44' E 011°11'1211.8
2014-Apr-17 22:34N 57°34' E 011°21'1111.5
2014-Apr-17 21:33N 57°23' E 011°30'1211.8
2014-Apr-17 20:33N 57°12' E 011°37'1211.9
2014-Apr-17 19:33N 57°01' E 011°45'1211.7
2014-Apr-17 18:33N 56°50' E 011°52'1211.6
2014-Apr-17 17:33N 56°39' E 011°57'1211.8
2014-Apr-17 16:33N 56°27' E 012°02'1111.3
2014-Apr-17 15:33N 56°17' E 012°10'1212.0
2014-Apr-17 14:33N 56°10' E 012°27'1211.8
2014-Apr-17 13:33N 56°01' E 012°41'1111.3
2014-Apr-17 12:33N 55°49' E 012°43'1111.4
2014-Apr-17 11:34N 55°38' E 012°42'9 9.0
2014-Apr-17 10:33N 55°29' E 012°43'8 7.7
2014-Apr-17 09:34N 55°21' E 012°42'1010.3
2014-Apr-17 08:33N 55°15' E 012°57'1211.7
2014-Apr-17 07:34N 55°14' E 013°17'1212.2
2014-Apr-17 06:33N 55°14' E 013°38'1312.7
2014-Apr-17 05:34N 55°14' E 014°00'1211.6
2014-Apr-17 04:33N 55°15' E 014°21'1212.5
2014-Apr-17 03:33N 55°25' E 014°35'1212.2
2014-Apr-17 02:33N 55°33' E 014°52'1212.4
2014-Apr-17 01:33N 55°39' E 015°11'1212.5
2014-Apr-17 00:33N 55°45' E 015°30'1212.3
2014-Apr-16 23:33N 55°51' E 015°50'1212.1
2014-Apr-16 22:33N 55°56' E 016°09'1212.1
2014-Apr-16 21:33N 56°02' E 016°27'  
2014-Apr-09 11:15N 55°13' E 019°10'812.2
2014-Apr-09 10:33N 55°05' E 019°07'1212.1
2014-Apr-09 09:34N 54°53' E 019°03'1312.6
2014-Apr-09 08:34N 54°41' E 018°58'1211.7
2014-Apr-09 07:34N 54°32' E 018°45'7 6.3
2014-Apr-09 06:31N 54°32' E 018°33'0 0.0
2014-Apr-09 05:31N 54°32' E 018°33'0 0.0
2014-Apr-09 04:31N 54°32' E 018°33'0 0.0
2014-Apr-09 03:31N 54°32' E 018°33'0 0.0
2014-Apr-09 02:31N 54°32' E 018°33'0 0.0
2014-Apr-09 01:31N 54°32' E 018°33'0 0.0
2014-Apr-09 00:31N 54°32' E 018°33'0 0.0
2014-Apr-08 23:31N 54°32' E 018°33'0 0.0
2014-Apr-08 22:31N 54°32' E 018°33'0 0.0
2014-Apr-08 21:31N 54°32' E 018°33'0 0.0
2014-Apr-08 20:31N 54°32' E 018°33'0 0.0
2014-Apr-08 19:31N 54°32' E 018°33'0 0.0
2014-Apr-08 18:31N 54°32' E 018°33'0 0.0
2014-Apr-08 17:31N 54°32' E 018°33'0 0.0
2014-Apr-08 16:31N 54°32' E 018°33'0 0.0
2014-Apr-08 15:31N 54°32' E 018°33'0 0.0
2014-Apr-08 14:31N 54°32' E 018°33'0 0.0
2014-Apr-08 13:31N 54°32' E 018°33'0 0.0
2014-Apr-08 12:34N 54°32' E 018°33'0 0.0
2014-Apr-08 11:34N 54°32' E 018°33'0 0.0
2014-Apr-08 10:33N 54°32' E 018°33'0 0.0
2014-Apr-08 09:33N 54°32' E 018°33'0 0.0
2014-Apr-08 08:33N 54°32' E 018°33'0 0.0
2014-Apr-08 07:34N 54°32' E 018°33'0 0.0
2014-Apr-08 06:33N 54°32' E 018°33'0 0.0
2014-Apr-08 05:33N 54°32' E 018°33'4 4.5
2014-Apr-08 04:33N 54°32' E 018°41'1010.5
2014-Apr-08 03:34N 54°39' E 018°55'1010.5
2014-Apr-08 02:34N 54°49' E 018°55'  

Dump ship's entire track history

sailing weather and tide predictions

Magnate — H9ZN — position and weather